Time;durP1;ratioP1;P1;durP2;ratioP2;P2;SDS_P1;SDS_P2;PMS_P1;PMS_P2;Temp;Humidity;BMP_temperature;BMP_pressure;BME280_temperature;BME280_humidity;BME280_pressure;Samples;Min_cycle;Max_cycle;Signal;HPM_P1;HPM_P2
2021/12/01 00:00:27;;;;;;;3.63;3.43;;;3.20;99.90;;;3.80;100.00;97462.97;5211406;28;20201;-63
2021/12/01 00:03:02;;;;;;;3.60;3.40;;;3.20;99.90;;;3.81;100.00;97457.19;5221624;28;20220;-63
2021/12/01 00:05:35;;;;;;;3.83;3.53;;;3.20;99.90;;;3.79;100.00;97448.59;5220287;28;20217;-64
2021/12/01 00:08:09;;;;;;;3.43;3.23;;;3.10;99.90;;;3.80;100.00;97440.25;5228380;28;20534;-63
2021/12/01 00:10:43;;;;;;;3.83;3.63;;;3.20;99.90;;;3.79;100.00;97435.09;5214848;28;20304;-63
2021/12/01 00:13:19;;;;;;;4.20;3.93;;;3.10;99.90;;;3.82;100.00;97425.19;5220591;28;20573;-63
2021/12/01 00:15:55;;;;;;;3.63;3.43;;;3.20;99.90;;;3.99;100.00;97423.94;5225880;28;20676;-64
2021/12/01 00:18:28;;;;;;;3.97;3.47;;;3.30;99.90;;;3.92;100.00;97422.63;5213603;28;20228;-63
2021/12/01 00:21:02;;;;;;;3.30;3.10;;;3.20;99.90;;;3.88;100.00;97418.06;5217868;28;20205;-63
2021/12/01 00:23:35;;;;;;;3.80;3.60;;;3.20;99.90;;;3.86;100.00;97424.66;5217287;28;20235;-63
2021/12/01 00:26:08;;;;;;;3.73;3.53;;;3.20;99.90;;;3.94;100.00;97410.06;5220555;28;20668;-63
2021/12/01 00:28:41;;;;;;;4.47;4.07;;;3.20;99.90;;;3.92;100.00;97402.41;5212294;28;20202;-63
2021/12/01 00:31:16;;;;;;;4.00;3.70;;;3.20;99.90;;;3.89;100.00;97402.13;5209369;28;20300;-63
2021/12/01 00:33:49;;;;;;;3.93;3.73;;;3.20;99.90;;;3.90;100.00;97410.63;5213380;28;20223;-63
2021/12/01 00:36:22;;;;;;;3.50;3.30;;;3.20;99.90;;;3.92;100.00;97398.97;5218353;28;20224;-63
2021/12/01 00:38:55;;;;;;;3.97;3.67;;;3.20;99.90;;;4.04;100.00;97392.31;5219095;28;20563;-63
2021/12/01 00:41:28;;;;;;;3.70;3.47;;;3.30;99.90;;;4.03;100.00;97391.44;5225562;28;20683;-63
2021/12/01 00:44:02;;;;;;;3.67;3.50;;;3.30;99.90;;;3.95;100.00;97386.53;5222516;28;20786;-62
2021/12/01 00:46:41;;;;;;;3.60;3.30;;;3.30;99.90;;;3.92;100.00;97384.69;5209224;28;20227;-63
2021/12/01 00:49:14;;;;;;;3.83;3.63;;;3.30;99.90;;;3.95;100.00;97377.34;5217705;28;20194;-63
2021/12/01 00:51:47;;;;;;;4.07;3.77;;;3.30;99.90;;;4.03;100.00;97380.41;5214266;28;20207;-63
2021/12/01 00:54:22;;;;;;;3.53;3.33;;;3.40;99.90;;;3.99;100.00;97374.25;5219710;28;20235;-63
2021/12/01 00:56:55;;;;;;;3.47;3.27;;;3.40;99.90;;;3.99;100.00;97369.19;5210476;28;20200;-63
2021/12/01 00:59:28;;;;;;;3.30;3.10;;;3.40;99.90;;;4.09;100.00;97364.81;5222381;28;20207;-63
2021/12/01 01:02:03;;;;;;;3.33;3.13;;;3.40;99.90;;;4.12;100.00;97370.09;5219543;28;20204;-63
2021/12/01 01:04:36;;;;;;;3.70;3.40;;;3.50;99.90;;;4.27;100.00;97361.13;5221459;28;20586;-63
2021/12/01 01:07:09;;;;;;;4.70;4.30;;;3.50;99.90;;;4.22;100.00;97347.25;5221355;28;20220;-63
2021/12/01 01:09:43;;;;;;;3.70;3.40;;;3.50;99.90;;;4.17;100.00;97349.44;5227715;28;20243;-63
2021/12/01 01:18:05;;;;;;;3.53;3.33;;;3.50;99.90;;;4.04;100.00;97331.63;5225110;28;20215;-63
2021/12/01 01:20:39;;;;;;;3.17;2.97;;;3.50;99.90;;;4.15;100.00;97335.81;5225469;28;20210;-63
2021/12/01 01:23:12;;;;;;;2.67;2.57;;;3.50;99.90;;;4.19;100.00;97331.84;5221906;28;20228;-64
2021/12/01 01:25:45;;;;;;;3.20;3.00;;;3.50;99.90;;;4.28;100.00;97330.00;5225099;28;20233;-63
2021/12/01 01:28:18;;;;;;;2.73;2.53;;;3.60;99.90;;;4.23;100.00;97334.69;5225553;28;20221;-63
2021/12/01 01:30:52;;;;;;;2.87;2.70;;;3.60;99.90;;;4.10;100.00;97321.09;5218783;28;20205;-63
2021/12/01 01:33:26;;;;;;;2.77;2.67;;;3.50;99.90;;;4.10;100.00;97321.97;5225175;28;20597;-63
2021/12/01 01:36:00;;;;;;;2.63;2.50;;;3.50;99.90;;;4.03;100.00;97330.75;5221792;28;20563;-63
2021/12/01 01:38:33;;;;;;;2.90;2.80;;;3.40;99.90;;;4.10;100.00;97316.91;5220479;28;20200;-62
2021/12/01 01:41:11;;;;;;;3.03;2.83;;;3.40;99.90;;;4.29;100.00;97314.94;5209127;28;20209;-62
2021/12/01 01:43:47;;;;;;;2.73;2.63;;;3.50;99.90;;;4.35;100.00;97304.38;5212972;28;20223;-62
2021/12/01 01:46:20;;;;;;;2.70;2.50;;;3.50;99.90;;;4.32;100.00;97304.16;5225819;28;20209;-62
2021/12/01 01:48:56;;;;;;;3.10;3.00;;;3.50;99.90;;;4.23;100.00;97304.34;5220619;28;20198;-62
2021/12/01 01:51:29;;;;;;;3.47;3.27;;;3.50;99.90;;;4.33;100.00;97310.97;5223680;28;20287;-62
2021/12/01 01:54:03;;;;;;;3.00;2.90;;;3.60;99.90;;;4.29;100.00;97306.44;5219345;28;20225;-63
2021/12/01 01:56:37;;;;;;;3.30;3.10;;;3.60;99.90;;;4.30;100.00;97303.16;5226769;28;20679;-64
2021/12/01 01:59:10;;;;;;;3.00;2.80;;;3.60;99.90;;;4.40;100.00;97297.97;5224695;28;20209;-63
2021/12/01 02:01:53;;;;;;;2.90;2.80;;;3.60;99.90;;;4.34;100.00;97302.59;5215228;28;20706;-63
2021/12/01 02:04:32;;;;;;;2.90;2.70;;;3.60;99.90;;;4.27;100.00;97285.25;5219893;28;20217;-63
2021/12/01 02:07:06;;;;;;;3.17;3.00;;;3.60;99.90;;;4.35;100.00;97284.16;5226447;28;20779;-63
2021/12/01 02:09:39;;;;;;;3.30;3.13;;;3.50;99.90;;;4.34;100.00;97282.38;5220647;28;20197;-63
2021/12/01 02:12:12;;;;;;;3.00;2.90;;;3.60;99.90;;;4.52;100.00;97275.19;5211906;28;20212;-63
2021/12/01 02:14:46;;;;;;;3.10;2.90;;;3.60;99.90;;;4.57;100.00;97261.22;5221849;28;20518;-63
2021/12/01 02:17:19;;;;;;;2.73;2.53;;;3.70;99.90;;;4.50;100.00;97270.03;5222645;28;20285;-62
2021/12/01 02:19:55;;;;;;;3.10;2.90;;;3.60;99.90;;;4.49;100.00;97273.34;5219929;28;20212;-62
2021/12/01 02:22:33;;;;;;;2.80;2.70;;;3.60;99.90;;;4.51;100.00;97269.25;5217803;28;20197;-62
2021/12/01 02:25:07;;;;;;;2.57;2.47;;;3.70;99.90;;;4.55;100.00;97255.19;5222966;28;20359;-62
2021/12/01 02:27:40;;;;;;;2.37;2.27;;;3.70;99.90;;;4.49;100.00;97255.66;5214388;28;20222;-62
2021/12/01 02:30:13;;;;;;;2.13;2.03;;;3.70;99.90;;;4.50;100.00;97252.31;5220461;28;20201;-62
2021/12/01 02:32:46;;;;;;;2.27;2.17;;;3.70;99.90;;;4.45;100.00;97250.25;5220319;28;20221;-62
2021/12/01 02:35:19;;;;;;;2.40;2.30;;;3.70;99.90;;;4.49;100.00;97243.00;5224487;28;20284;-62
2021/12/01 02:37:54;;;;;;;2.60;2.50;;;3.70;99.90;;;4.50;100.00;97249.78;5219547;28;20219;-62
2021/12/01 02:40:27;;;;;;;2.60;2.40;;;3.70;99.90;;;4.53;100.00;97238.13;5218255;28;20228;-62
2021/12/01 02:43:00;;;;;;;2.20;2.10;;;3.80;99.90;;;4.57;100.00;97229.97;5216741;28;20327;-62
2021/12/01 02:45:33;;;;;;;2.67;2.47;;;3.70;99.90;;;4.52;100.00;97227.13;5222203;28;20679;-62
2021/12/01 02:48:07;;;;;;;2.60;2.50;;;3.80;99.90;;;4.55;100.00;97232.41;5226974;28;20213;-62
2021/12/01 02:50:43;;;;;;;2.47;2.37;;;3.70;99.90;;;4.61;100.00;97221.84;5219092;28;20609;-62
2021/12/01 02:53:21;;;;;;;2.63;2.50;;;3.90;99.90;;;4.56;100.00;97213.91;5214435;28;20298;-62
2021/12/01 02:55:56;;;;;;;3.17;3.03;;;3.90;99.90;;;4.68;100.00;97218.94;5220514;28;20201;-62
2021/12/01 02:58:32;;;;;;;2.97;2.83;;;3.90;99.90;;;4.65;100.00;97219.63;5223467;28;20285;-62
2021/12/01 03:01:11;;;;;;;2.73;2.60;;;3.90;99.90;;;4.69;100.00;97206.41;5220790;28;20205;-62
2021/12/01 03:03:45;;;;;;;6.17;3.90;;;3.90;99.90;;;4.69;100.00;97203.88;5212768;28;20241;-62
2021/12/01 03:06:20;;;;;;;3.70;3.40;;;3.90;99.90;;;4.70;100.00;97197.16;5214029;28;20205;-62
2021/12/01 03:08:56;;;;;;;3.20;3.00;;;3.80;99.90;;;4.79;100.00;97190.19;5221695;28;20247;-62
2021/12/01 03:11:29;;;;;;;2.70;2.60;;;3.90;99.90;;;4.72;100.00;97190.53;5217723;28;20288;-62
2021/12/01 03:14:08;;;;;;;3.93;3.53;;;3.90;99.90;;;4.73;100.00;97188.13;5224858;28;20615;-62
2021/12/01 03:16:42;;;;;;;7.30;3.77;;;3.90;99.90;;;4.81;100.00;97176.00;5219648;28;20204;-62
2021/12/01 03:19:15;;;;;;;3.50;3.30;;;4.00;99.90;;;4.84;100.00;97173.66;5220274;28;20194;-62
2021/12/01 03:21:48;;;;;;;3.40;3.13;;;4.00;99.90;;;4.78;100.00;97159.69;5221121;28;20210;-62
2021/12/01 03:24:23;;;;;;;4.30;3.90;;;4.00;99.90;;;4.78;100.00;97160.59;5218596;28;20300;-62
2021/12/01 03:26:56;;;;;;;3.40;3.20;;;4.00;99.90;;;4.82;100.00;97157.50;5220055;28;20266;-62
2021/12/01 03:29:29;;;;;;;4.50;3.20;;;4.00;99.90;;;4.84;100.00;97155.94;5223045;28;20656;-62
2021/12/01 03:32:02;;;;;;;2.90;2.70;;;4.10;99.90;;;4.82;100.00;97152.44;5218493;28;20197;-62
2021/12/01 03:34:36;;;;;;;3.17;2.90;;;4.10;99.90;;;4.85;100.00;97146.69;5220967;28;20628;-62
2021/12/01 03:37:09;;;;;;;3.70;3.40;;;4.10;99.90;;;4.91;100.00;97149.63;5216346;28;20196;-62
2021/12/01 03:39:43;;;;;;;5.73;3.40;;;4.10;99.90;;;4.88;100.00;97142.69;5219657;28;20574;-62
2021/12/01 03:42:16;;;;;;;4.63;3.17;;;4.00;99.90;;;4.83;100.00;97138.97;5220170;28;20200;-62
2021/12/01 03:44:50;;;;;;;3.73;3.13;;;4.00;99.90;;;4.79;100.00;97139.56;5211687;28;20212;-62
2021/12/01 03:47:23;;;;;;;3.93;3.27;;;4.00;99.90;;;4.77;100.00;97133.50;5209233;28;20228;-62
2021/12/01 03:49:56;;;;;;;3.00;2.80;;;4.00;99.90;;;4.87;100.00;97130.84;5214504;28;20197;-62
2021/12/01 03:52:30;;;;;;;3.03;2.83;;;4.00;99.90;;;4.85;100.00;97132.38;5213810;28;20203;-62
2021/12/01 03:55:05;;;;;;;3.60;3.03;;;4.00;99.90;;;4.86;100.00;97129.06;5215524;28;20198;-62
2021/12/01 03:57:40;;;;;;;3.83;3.53;;;4.00;99.90;;;4.87;100.00;97130.84;5225728;28;20203;-62
2021/12/01 04:00:17;;;;;;;3.93;3.63;;;4.00;99.90;;;4.80;100.00;97127.78;5222369;28;20203;-62
2021/12/01 04:02:50;;;;;;;6.73;5.50;;;4.00;99.90;;;4.78;100.00;97122.63;5212290;28;20755;-62
2021/12/01 04:05:23;;;;;;;3.77;3.47;;;4.00;99.90;;;4.83;100.00;97127.97;5210727;28;20197;-62
2021/12/01 04:07:57;;;;;;;4.50;4.20;;;4.10;99.90;;;4.79;100.00;97116.78;5220939;28;20228;-62
2021/12/01 04:10:32;;;;;;;3.77;3.40;;;4.00;99.90;;;4.83;100.00;97112.78;5221446;28;20201;-62
2021/12/01 04:13:06;;;;;;;3.60;3.30;;;4.00;99.90;;;4.86;100.00;97113.88;5231134;23;20228;-61
2021/12/01 04:15:39;;;;;;;3.10;2.90;;;4.10;99.90;;;4.97;100.00;97102.78;5242147;28;20226;-59
2021/12/01 04:18:12;;;;;;;2.80;2.60;;;4.10;99.90;;;4.97;100.00;97097.72;5233062;28;20201;-61
2021/12/01 04:20:45;;;;;;;2.70;2.60;;;4.10;99.90;;;4.91;100.00;97092.28;5239742;28;20287;-59
2021/12/01 04:23:19;;;;;;;2.97;2.83;;;4.00;99.90;;;4.86;100.00;97080.09;5234516;28;20233;-61
2021/12/01 04:25:53;;;;;;;2.50;2.40;;;4.10;99.90;;;4.87;100.00;97076.78;5222765;28;20213;-61
2021/12/01 04:28:27;;;;;;;2.90;2.80;;;4.10;99.90;;;4.90;100.00;97069.41;5218747;28;20243;-61
2021/12/01 04:31:00;;;;;;;3.00;2.80;;;4.10;99.90;;;4.87;100.00;97070.06;5223627;28;20203;-61
2021/12/01 04:33:33;;;;;;;3.10;2.93;;;4.00;99.90;;;4.90;100.00;97062.69;5216481;28;20221;-60
2021/12/01 04:36:06;;;;;;;2.87;2.67;;;4.00;99.90;;;4.93;100.00;97070.47;5220183;28;20201;-61
2021/12/01 04:38:40;;;;;;;2.80;2.70;;;4.00;99.90;;;5.06;100.00;97063.66;5221244;28;20576;-61
2021/12/01 04:41:14;;;;;;;2.63;2.43;;;4.10;99.90;;;4.99;100.00;97054.81;5220743;28;20194;-59
2021/12/01 04:43:48;;;;;;;2.63;2.47;;;4.00;99.90;;;4.97;100.00;97047.09;5222658;28;20588;-61
2021/12/01 04:46:21;;;;;;;2.67;2.57;;;4.10;99.90;;;4.97;100.00;97047.09;5222716;28;20208;-58
2021/12/01 04:48:54;;;;;;;2.83;2.63;;;4.10;99.90;;;5.06;100.00;97030.75;5223985;28;20235;-60
2021/12/01 04:51:27;;;;;;;2.63;2.30;;;4.10;99.90;;;5.10;100.00;97031.06;5222580;28;20197;-61
2021/12/01 04:54:00;;;;;;;2.67;2.50;;;4.20;99.90;;;5.09;100.00;97020.81;5221190;28;20217;-61
2021/12/01 04:56:35;;;;;;;2.90;2.70;;;4.20;99.90;;;5.13;100.00;97015.19;5216936;28;20214;-61
2021/12/01 04:59:10;;;;;;;3.50;3.20;;;4.20;99.90;;;5.10;100.00;97012.44;5223262;28;20192;-61
2021/12/01 05:01:43;;;;;;;3.00;2.80;;;4.20;99.90;;;5.04;100.00;97012.06;5219306;28;20208;-61
2021/12/01 05:04:16;;;;;;;3.10;2.90;;;4.20;99.90;;;5.09;100.00;97005.63;5221127;28;20613;-61
2021/12/01 05:06:51;;;;;;;2.93;2.83;;;4.20;99.90;;;5.04;100.00;97007.00;5221171;28;20197;-61
2021/12/01 05:09:24;;;;;;;3.20;3.10;;;4.20;99.90;;;5.22;100.00;96997.16;5222157;28;20224;-60
2021/12/01 05:11:59;;;;;;;2.77;2.67;;;4.20;99.90;;;5.18;100.00;96986.84;5222712;28;20288;-61
2021/12/01 05:14:32;;;;;;;3.00;2.80;;;4.30;99.90;;;5.13;100.00;96979.72;5220758;28;20316;-61
2021/12/01 05:17:06;;;;;;;2.60;2.50;;;4.20;99.90;;;5.12;100.00;96975.41;5222672;28;20222;-60
2021/12/01 05:19:39;;;;;;;2.83;2.73;;;4.20;99.90;;;5.05;100.00;96973.28;5223841;28;20190;-61
2021/12/01 05:22:12;;;;;;;2.70;2.50;;;4.20;99.90;;;5.08;100.00;96970.94;5219814;28;20200;-61
2021/12/01 05:24:45;;;;;;;2.93;2.83;;;4.20;99.90;;;5.05;100.00;96958.97;5219881;28;20228;-62
2021/12/01 05:27:20;;;;;;;3.23;2.83;;;4.10;99.90;;;5.05;100.00;96965.69;5209228;28;20687;-62
2021/12/01 05:29:53;;;;;;;2.60;2.40;;;4.20;99.90;;;5.06;100.00;96963.22;5222567;28;20594;-62
2021/12/01 05:32:26;;;;;;;2.60;2.50;;;4.20;99.90;;;5.02;100.00;96952.84;5214705;28;20201;-62
2021/12/01 05:35:00;;;;;;;2.90;2.77;;;4.20;99.90;;;5.09;100.00;96945.69;5222956;28;20239;-62
2021/12/01 05:37:33;;;;;;;2.80;2.60;;;4.20;99.90;;;5.02;100.00;96943.56;5220955;28;20300;-62
2021/12/01 05:40:07;;;;;;;2.57;2.47;;;4.20;99.90;;;5.13;100.00;96936.66;5220102;28;20201;-62
2021/12/01 05:42:42;;;;;;;2.60;2.50;;;4.20;99.90;;;5.12;100.00;96935.78;5214623;28;20291;-62
2021/12/01 05:45:15;;;;;;;3.20;3.00;;;4.20;99.90;;;5.16;100.00;96926.72;5219068;28;20220;-62
2021/12/01 05:47:48;;;;;;;2.93;2.80;;;4.30;99.90;;;5.25;100.00;96927.28;5224261;28;20656;-61
2021/12/01 05:50:21;;;;;;;2.90;2.70;;;4.30;99.90;;;5.27;100.00;96925.75;5223646;28;20203;-62
2021/12/01 05:52:54;;;;;;;3.60;3.40;;;4.30;99.90;;;5.43;100.00;96928.41;5220216;28;20639;-62
2021/12/01 05:55:28;;;;;;;3.47;3.10;;;4.40;99.90;;;5.30;100.00;96920.84;5223856;28;20208;-61
2021/12/01 05:58:02;;;;;;;4.03;3.83;;;4.40;99.90;;;5.22;100.00;96924.56;5227624;28;20197;-61
2021/12/01 06:00:35;;;;;;;4.07;3.77;;;4.40;99.90;;;5.25;100.00;96913.75;5215769;28;20669;-61
2021/12/01 06:03:09;;;;;;;4.73;4.30;;;4.40;99.90;;;5.29;100.00;96918.22;5227256;28;20227;-62
2021/12/01 06:05:43;;;;;;;4.40;4.10;;;4.50;99.90;;;5.29;100.00;96911.47;5220178;28;20197;-61
2021/12/01 06:08:16;;;;;;;3.80;3.43;;;4.50;99.90;;;5.29;100.00;96906.41;5226043;28;20626;-62
2021/12/01 06:10:49;;;;;;;3.60;3.37;;;4.50;99.90;;;5.23;100.00;96903.50;5221521;28;20292;-62
2021/12/01 06:13:24;;;;;;;2.87;2.77;;;4.40;99.90;;;5.21;100.00;96900.03;5225278;28;20337;-62
2021/12/01 06:15:59;;;;;;;2.93;2.73;;;4.40;99.90;;;5.18;100.00;96899.84;5224740;28;20323;-62
2021/12/01 06:18:32;;;;;;;2.97;2.73;;;4.40;99.90;;;5.20;100.00;96899.13;5222022;28;20201;-62
2021/12/01 06:21:05;;;;;;;3.00;2.90;;;4.40;99.90;;;5.20;100.00;96895.72;5223358;28;20292;-62
2021/12/01 06:23:39;;;;;;;3.10;2.90;;;4.40;99.90;;;5.20;100.00;96890.66;5220492;28;20264;-62
2021/12/01 06:26:12;;;;;;;2.70;2.60;;;4.40;99.90;;;5.20;100.00;96888.13;5214183;28;20601;-62
2021/12/01 06:28:46;;;;;;;2.93;2.67;;;4.40;99.90;;;5.20;100.00;96875.47;5217894;28;20222;-62
2021/12/01 06:31:20;;;;;;;3.20;3.00;;;4.40;99.90;;;5.21;100.00;96872.16;5215926;28;20747;-62
2021/12/01 06:33:53;;;;;;;3.07;2.97;;;4.40;99.90;;;5.23;100.00;96874.78;5218371;28;20270;-62
2021/12/01 06:36:26;;;;;;;3.10;2.90;;;4.40;99.90;;;5.23;100.00;96870.59;5222124;28;20193;-62
2021/12/01 06:39:00;;;;;;;3.20;3.00;;;4.40;99.90;;;5.18;100.00;96866.91;5234478;28;20284;-62
2021/12/01 06:41:33;;;;;;;3.53;2.80;;;4.40;99.90;;;5.23;100.00;96857.03;5221096;28;20200;-62
2021/12/01 06:44:08;;;;;;;5.20;4.80;;;4.40;99.90;;;5.23;100.00;96851.97;5225013;28;20331;-62
2021/12/01 06:46:41;;;;;;;5.90;5.30;;;4.40;99.90;;;5.19;100.00;96846.72;5219846;28;20296;-62
2021/12/01 06:49:14;;;;;;;5.93;5.43;;;4.40;99.90;;;5.18;100.00;96845.00;5225401;28;20649;-62
2021/12/01 06:51:48;;;;;;;6.30;5.70;;;4.40;99.90;;;5.20;100.00;96835.81;5212213;28;20240;-62
2021/12/01 06:54:21;;;;;;;6.20;5.47;;;4.40;99.90;;;5.20;100.00;96829.88;5214547;28;20217;-62
2021/12/01 06:56:54;;;;;;;5.97;5.37;;;4.40;99.90;;;5.21;100.00;96836.72;5229387;28;20582;-62
2021/12/01 06:59:28;;;;;;;5.40;4.83;;;4.40;99.90;;;5.20;100.00;96837.47;5225929;28;20289;-62
2021/12/01 07:02:01;;;;;;;6.53;4.10;;;4.40;99.90;;;5.22;100.00;96840.97;5227896;28;20640;-62
2021/12/01 07:04:34;;;;;;;5.30;4.80;;;4.40;99.90;;;5.19;100.00;96843.31;5222987;28;20278;-60
2021/12/01 07:07:08;;;;;;;5.27;4.70;;;4.40;99.90;;;5.21;100.00;96839.25;5216879;28;20197;-62
2021/12/01 07:09:41;;;;;;;4.80;4.40;;;4.40;99.90;;;5.14;100.00;96837.09;5225471;28;20552;-62
2021/12/01 07:12:14;;;;;;;4.90;4.50;;;4.30;99.90;;;5.13;100.00;96835.34;5222900;28;20205;-61
2021/12/01 07:14:49;;;;;;;5.10;4.43;;;4.30;99.90;;;5.12;100.00;96824.34;5219696;28;20598;-62
2021/12/01 07:17:23;;;;;;;7.50;4.23;;;4.30;99.90;;;5.16;100.00;96822.88;5220700;28;20201;-62
2021/12/01 07:19:56;;;;;;;5.00;4.60;;;4.30;99.90;;;5.17;100.00;96817.03;5214325;28;20293;-62
2021/12/01 07:22:29;;;;;;;4.90;4.40;;;4.40;99.90;;;5.20;100.00;96802.88;5221737;28;20582;-62
2021/12/01 07:25:03;;;;;;;3.93;3.63;;;4.40;99.90;;;5.23;100.00;96799.66;5214708;28;20563;-62
2021/12/01 07:27:36;;;;;;;4.13;3.73;;;4.40;99.90;;;5.28;100.00;96789.81;5210368;28;20201;-62
2021/12/01 07:30:12;;;;;;;4.37;3.80;;;4.50;99.90;;;5.26;100.00;96777.03;5216004;28;20249;-62
2021/12/01 07:32:45;;;;;;;4.10;3.80;;;4.50;99.90;;;5.30;100.00;96770.53;5222917;28;20639;-62
2021/12/01 07:35:18;;;;;;;4.47;3.27;;;4.50;99.90;;;5.35;100.00;96767.47;5220835;28;20221;-62
2021/12/01 07:37:53;;;;;;;3.90;3.70;;;4.50;99.90;;;5.44;100.00;96767.16;5220939;28;20202;-62
2021/12/01 07:40:26;;;;;;;3.47;3.13;;;4.60;99.90;;;5.52;100.00;96765.94;5225631;28;20283;-61
2021/12/01 07:42:59;;;;;;;3.50;3.30;;;4.60;99.90;;;5.58;100.00;96755.25;5223146;28;20296;-62
2021/12/01 07:45:34;;;;;;;3.13;3.00;;;4.70;99.90;;;5.58;100.00;96745.13;5222710;28;20202;-61
2021/12/01 07:48:07;;;;;;;2.47;2.37;;;4.70;99.90;;;5.85;100.00;96741.63;5216465;28;20204;-62
2021/12/01 07:50:41;;;;;;;3.07;2.87;;;4.80;99.90;;;5.86;100.00;96738.31;5213991;28;20328;-62
2021/12/01 07:53:14;;;;;;;4.20;2.60;;;4.90;99.90;;;5.96;100.00;96738.88;5218578;28;20245;-62
2021/12/01 07:55:48;;;;;;;2.50;2.40;;;4.90;99.90;;;6.05;100.00;96714.03;5220981;28;20244;-62
2021/12/01 07:58:21;;;;;;;3.23;2.53;;;5.10;99.90;;;6.16;100.00;96715.50;5217988;28;20660;-62
2021/12/01 08:00:55;;;;;;;2.73;2.63;;;5.10;99.90;;;6.23;100.00;96712.50;5224284;28;20197;-62
2021/12/01 08:03:29;;;;;;;2.37;2.27;;;5.20;99.90;;;6.26;100.00;96702.50;5224056;28;20216;-62
2021/12/01 08:06:02;;;;;;;2.17;2.07;;;5.20;99.90;;;6.22;100.00;96702.28;5219949;28;20898;-62
2021/12/01 08:08:35;;;;;;;2.40;2.30;;;5.20;99.90;;;6.29;100.00;96702.69;5223697;28;20228;-62
2021/12/01 08:11:08;;;;;;;2.27;2.17;;;5.20;99.90;;;6.36;100.00;96685.28;5213387;28;20313;-62
2021/12/01 08:13:41;;;;;;;2.67;2.47;;;5.30;99.90;;;6.30;100.00;96680.75;5209174;28;20325;-62
2021/12/01 08:16:19;;;;;;;2.50;2.30;;;5.20;99.90;;;6.42;100.00;96680.53;5208171;28;20548;-62
2021/12/01 08:18:55;;;;;;;2.33;2.07;;;5.40;99.90;;;6.51;100.00;96676.78;5208803;28;20286;-62
2021/12/01 08:21:28;;;;;;;2.07;1.97;;;5.40;99.90;;;6.51;100.00;96665.78;5225478;28;20284;-62
2021/12/01 08:24:14;;;;;;;2.60;2.50;;;5.40;99.90;;;6.48;100.00;96661.41;5225664;28;20221;-62
2021/12/01 08:26:48;;;;;;;2.00;1.90;;;5.50;99.90;;;6.57;100.00;96665.22;5225779;28;20204;-63
2021/12/01 08:29:21;;;;;;;2.17;2.10;;;5.60;99.90;;;6.56;100.00;96659.28;5225323;28;20323;-62
2021/12/01 08:31:55;;;;;;;2.33;2.23;;;5.70;99.90;;;6.58;100.00;96645.00;5205320;28;20212;-62
2021/12/01 08:34:29;;;;;;;2.30;2.20;;;5.70;99.90;;;6.66;100.00;96647.94;5218983;28;20228;-62
2021/12/01 08:37:02;;;;;;;2.20;2.10;;;5.70;99.90;;;6.69;100.00;96638.81;5225775;28;20605;-61
2021/12/01 08:39:35;;;;;;;2.37;2.27;;;5.80;99.90;;;6.85;100.00;96625.25;5225349;28;20221;-62
2021/12/01 08:42:10;;;;;;;2.10;2.00;;;5.90;99.90;;;6.99;100.00;96633.56;5225490;28;20661;-62
2021/12/01 08:44:45;;;;;;;2.00;1.90;;;6.00;99.90;;;7.06;100.00;96633.06;5225501;28;20577;-62
2021/12/01 08:47:23;;;;;;;2.47;2.37;;;6.10;99.90;;;7.07;99.02;96628.84;5226073;28;20288;-62
2021/12/01 08:49:56;;;;;;;2.40;2.20;;;6.10;99.90;;;7.16;98.99;96624.25;5225428;28;20655;-61
2021/12/01 08:52:29;;;;;;;1.97;1.97;;;6.20;99.90;;;7.10;100.00;96623.97;5225132;28;20203;-61
2021/12/01 08:55:05;;;;;;;2.40;2.30;;;6.20;99.90;;;7.20;100.00;96610.91;5225116;28;20598;-62
2021/12/01 08:57:39;;;;;;;2.50;2.40;;;6.30;99.90;;;7.28;100.00;96598.59;5224852;28;20203;-62
2021/12/01 09:00:13;;;;;;;2.30;2.20;;;6.30;99.90;;;7.21;99.51;96583.03;5225506;28;20661;-61
2021/12/01 09:02:48;;;;;;;2.47;2.30;;;6.40;99.90;;;7.38;97.83;96582.97;5217416;28;20288;-62
2021/12/01 09:05:21;;;;;;;2.30;2.20;;;6.50;99.90;;;7.37;97.64;96581.22;5207868;28;20755;-62
2021/12/01 09:07:54;;;;;;;1.93;1.87;;;6.50;99.90;;;7.31;95.91;96586.03;5217450;28;20204;-62
2021/12/01 09:10:27;;;;;;;2.40;2.30;;;6.60;99.90;;;7.32;96.63;96583.53;5222091;28;20315;-61
2021/12/01 09:13:01;;;;;;;2.87;2.67;;;6.70;99.90;;;7.38;96.96;96576.25;5211407;28;20744;-61
2021/12/01 09:15:36;;;;;;;4.00;3.70;;;6.80;99.90;;;7.42;97.58;96569.63;5225541;28;20736;-61
2021/12/01 09:18:12;;;;;;;2.63;2.53;;;6.80;99.90;;;7.41;98.96;96575.47;5222268;28;20669;-62
2021/12/01 09:20:45;;;;;;;1.90;1.87;;;6.80;99.90;;;7.38;96.36;96571.16;5222380;28;20772;-61
2021/12/01 09:23:19;;;;;;;1.90;1.80;;;6.80;99.90;;;7.43;98.41;96551.88;5207147;28;20305;-60
2021/12/01 09:25:53;;;;;;;2.23;2.20;;;6.80;99.90;;;7.44;98.18;96560.41;5208890;28;20296;-62
2021/12/01 09:28:27;;;;;;;2.23;2.13;;;6.90;99.90;;;7.39;94.58;96557.63;5218918;28;20588;-62
2021/12/01 09:31:00;;;;;;;1.77;1.77;;;6.90;99.90;;;7.44;95.96;96540.06;5229633;28;20838;-61
2021/12/01 09:33:34;;;;;;;2.00;1.90;;;7.00;99.90;;;7.47;95.30;96535.13;5228701;28;20233;-61
2021/12/01 09:36:08;;;;;;;1.60;1.60;;;7.10;99.90;;;7.60;95.67;96536.56;5228390;28;20199;-61
2021/12/01 09:38:42;;;;;;;2.20;2.20;;;7.20;99.90;;;7.61;93.53;96529.03;5228311;28;20197;-62
2021/12/01 09:41:15;;;;;;;2.00;2.00;;;7.40;99.90;;;7.73;95.38;96517.69;5228887;28;20262;-62
2021/12/01 09:43:48;;;;;;;2.23;2.13;;;7.40;99.90;;;7.78;93.42;96511.09;5228454;28;20303;-62
2021/12/01 09:46:22;;;;;;;2.40;2.30;;;7.50;99.90;;;7.86;91.70;96507.25;5228730;28;20574;-62
2021/12/01 09:48:56;;;;;;;1.50;1.50;;;7.60;99.90;;;7.96;94.52;96508.56;5228771;28;20209;-62
2021/12/01 09:51:29;;;;;;;1.90;1.80;;;7.70;99.90;;;8.11;94.86;96502.47;5228395;28;20235;-62
2021/12/01 09:54:04;;;;;;;2.13;2.03;;;7.80;99.90;;;8.17;94.37;96490.81;5227841;28;20723;-62
2021/12/01 09:56:37;;;;;;;2.10;2.00;;;7.90;99.90;;;8.23;93.16;96481.75;5208068;28;20687;-62
2021/12/01 09:59:10;;;;;;;2.27;2.17;;;8.00;99.90;;;8.30;94.91;96476.16;5208458;28;20202;-62
2021/12/01 10:01:44;;;;;;;2.13;2.03;;;8.00;99.90;;;8.38;93.61;96461.19;5227620;28;20655;-61
2021/12/01 10:04:18;;;;;;;2.07;1.97;;;8.00;99.90;;;8.47;92.84;96461.63;5220262;28;20232;-62
2021/12/01 10:06:52;;;;;;;2.07;1.97;;;8.00;99.90;;;8.57;94.07;96451.00;5223131;28;20209;-62
2021/12/01 10:09:25;;;;;;;2.17;2.07;;;8.10;99.90;;;8.51;90.57;96435.47;5216458;28;20281;-61
2021/12/01 10:12:07;;;;;;;1.93;1.93;;;8.10;99.90;;;8.50;89.34;96431.19;5226331;28;20601;-61
2021/12/01 10:14:45;;;;;;;2.20;2.10;;;8.10;99.90;;;8.50;90.80;96418.47;5239744;23;20316;-60
2021/12/01 10:17:34;;;;;;;2.00;1.90;;;8.20;99.90;;;8.62;91.15;96413.00;5220179;28;20292;-62
2021/12/01 10:20:15;;;;;;;1.73;1.73;;;8.20;99.90;;;8.61;90.18;96403.59;5223132;28;20286;-58
2021/12/01 10:23:11;;;;;;;1.73;1.73;;;8.20;99.90;;;8.72;89.82;96398.97;5222821;28;20752;-60
2021/12/01 10:25:45;;;;;;;2.00;1.90;;;8.30;99.90;;;8.59;86.69;96400.16;5203179;28;20226;-59
2021/12/01 10:28:35;;;;;;;1.80;1.80;;;8.30;99.90;;;8.68;88.92;96395.44;5220232;28;20193;-60
2021/12/01 10:31:08;;;;;;;2.10;2.00;;;8.30;99.90;;;8.69;89.29;96386.09;5220389;28;20707;-60
2021/12/01 10:33:42;;;;;;;2.10;2.00;;;8.30;99.90;;;8.82;89.51;96380.69;5207440;28;20715;-60
2021/12/01 10:36:17;;;;;;;1.93;1.90;;;8.30;99.90;;;8.88;90.76;96380.94;5211438;28;20640;-60
2021/12/01 10:38:50;;;;;;;1.90;1.90;;;8.40;99.90;;;8.89;91.54;96380.13;5215635;28;20201;-61
2021/12/01 10:41:36;;;;;;;1.85;1.85;;;8.50;99.90;;;8.88;88.58;96383.47;5214962;28;20284;-60
2021/12/01 10:44:11;;;;;;;1.80;1.80;;;8.40;99.90;;;8.93;92.26;96382.00;5215116;28;20308;-60
2021/12/01 10:46:47;;;;;;;2.00;1.90;;;8.40;99.90;;;8.87;87.82;96366.47;5213884;28;20281;-61
2021/12/01 10:49:36;;;;;;;1.90;1.80;;;8.40;99.90;;;8.93;90.19;96356.50;5213122;28;20641;-61
2021/12/01 10:52:30;;;;;;;1.92;1.92;;;8.30;99.90;;;8.94;93.72;96359.91;5221654;28;20206;-60
2021/12/01 10:55:07;;;;;;;1.70;1.60;;;8.30;99.90;;;8.98;90.78;96349.88;5207058;28;20218;-61
2021/12/01 10:57:42;;;;;;;1.57;1.47;;;8.30;99.90;;;9.01;92.35;96352.59;5206708;28;20205;-61
2021/12/01 11:00:21;;;;;;;1.60;1.60;;;8.40;99.90;;;9.07;92.33;96345.97;5208242;28;20288;-60
2021/12/01 11:03:05;;;;;;;1.63;1.52;;;8.40;99.90;;;8.98;89.62;96339.69;5213730;28;20635;-60